sensor_id;sensor_type;location;lat;lon;timestamp;P1;durP1;ratioP1;P2;durP2;ratioP2
4274;SDS011;2151;50.988;11.068;2023-04-06T00:00:08;133.27;;;11.10;;
4274;SDS011;2151;50.988;11.068;2023-04-06T00:02:36;134.57;;;10.47;;
4274;SDS011;2151;50.988;11.068;2023-04-06T00:05:03;133.17;;;10.60;;
4274;SDS011;2151;50.988;11.068;2023-04-06T00:07:29;135.33;;;10.37;;
4274;SDS011;2151;50.988;11.068;2023-04-06T00:09:56;134.40;;;10.27;;
4274;SDS011;2151;50.988;11.068;2023-04-06T00:12:23;142.77;;;11.17;;
4274;SDS011;2151;50.988;11.068;2023-04-06T00:14:49;136.77;;;10.87;;
4274;SDS011;2151;50.988;11.068;2023-04-06T00:17:17;135.47;;;11.20;;
4274;SDS011;2151;50.988;11.068;2023-04-06T00:19:44;136.53;;;11.20;;
4274;SDS011;2151;50.988;11.068;2023-04-06T00:22:10;141.93;;;12.43;;
4274;SDS011;2151;50.988;11.068;2023-04-06T00:24:37;137.80;;;11.80;;
4274;SDS011;2151;50.988;11.068;2023-04-06T00:27:04;135.27;;;11.20;;
4274;SDS011;2151;50.988;11.068;2023-04-06T00:29:30;138.73;;;11.20;;
4274;SDS011;2151;50.988;11.068;2023-04-06T00:31:57;138.80;;;11.90;;
4274;SDS011;2151;50.988;11.068;2023-04-06T00:34:24;138.77;;;11.43;;
4274;SDS011;2151;50.988;11.068;2023-04-06T00:36:50;137.10;;;11.83;;
4274;SDS011;2151;50.988;11.068;2023-04-06T00:39:17;136.80;;;11.13;;
4274;SDS011;2151;50.988;11.068;2023-04-06T00:41:47;141.83;;;11.60;;
4274;SDS011;2151;50.988;11.068;2023-04-06T00:44:16;135.77;;;11.13;;
4274;SDS011;2151;50.988;11.068;2023-04-06T00:46:43;137.00;;;11.37;;
4274;SDS011;2151;50.988;11.068;2023-04-06T00:49:09;135.30;;;11.27;;
4274;SDS011;2151;50.988;11.068;2023-04-06T00:51:36;135.80;;;12.67;;
4274;SDS011;2151;50.988;11.068;2023-04-06T00:54:03;138.97;;;12.23;;
4274;SDS011;2151;50.988;11.068;2023-04-06T00:56:29;137.67;;;11.47;;
4274;SDS011;2151;50.988;11.068;2023-04-06T00:58:56;133.90;;;10.50;;
4274;SDS011;2151;50.988;11.068;2023-04-06T01:01:23;138.20;;;11.90;;
4274;SDS011;2151;50.988;11.068;2023-04-06T01:03:49;134.90;;;10.80;;
4274;SDS011;2151;50.988;11.068;2023-04-06T01:06:16;136.67;;;10.93;;
4274;SDS011;2151;50.988;11.068;2023-04-06T01:08:43;135.80;;;11.20;;
4274;SDS011;2151;50.988;11.068;2023-04-06T01:11:10;136.87;;;10.97;;
4274;SDS011;2151;50.988;11.068;2023-04-06T01:13:36;137.90;;;10.37;;
4274;SDS011;2151;50.988;11.068;2023-04-06T01:16:03;135.00;;;11.10;;
4274;SDS011;2151;50.988;11.068;2023-04-06T01:18:30;136.07;;;11.07;;
4274;SDS011;2151;50.988;11.068;2023-04-06T01:20:56;136.90;;;11.00;;
4274;SDS011;2151;50.988;11.068;2023-04-06T01:23:24;134.70;;;10.97;;
4274;SDS011;2151;50.988;11.068;2023-04-06T01:25:51;138.00;;;11.17;;
4274;SDS011;2151;50.988;11.068;2023-04-06T01:28:17;137.13;;;11.10;;
4274;SDS011;2151;50.988;11.068;2023-04-06T01:30:44;132.50;;;10.03;;
4274;SDS011;2151;50.988;11.068;2023-04-06T01:33:11;134.10;;;10.30;;
4274;SDS011;2151;50.988;11.068;2023-04-06T01:35:37;135.27;;;11.37;;
4274;SDS011;2151;50.988;11.068;2023-04-06T01:38:04;134.77;;;10.20;;
4274;SDS011;2151;50.988;11.068;2023-04-06T01:40:30;135.37;;;10.60;;
4274;SDS011;2151;50.988;11.068;2023-04-06T01:42:57;134.90;;;10.83;;
4274;SDS011;2151;50.988;11.068;2023-04-06T01:45:24;139.60;;;11.00;;
4274;SDS011;2151;50.988;11.068;2023-04-06T01:47:50;133.90;;;10.77;;
4274;SDS011;2151;50.988;11.068;2023-04-06T01:50:17;134.60;;;11.43;;
4274;SDS011;2151;50.988;11.068;2023-04-06T01:52:43;134.57;;;10.20;;
4274;SDS011;2151;50.988;11.068;2023-04-06T01:55:10;136.87;;;10.50;;
4274;SDS011;2151;50.988;11.068;2023-04-06T01:57:37;134.20;;;10.13;;
4274;SDS011;2151;50.988;11.068;2023-04-06T02:00:04;135.37;;;10.50;;
4274;SDS011;2151;50.988;11.068;2023-04-06T02:02:31;135.97;;;11.27;;
4274;SDS011;2151;50.988;11.068;2023-04-06T02:04:58;134.30;;;10.57;;
4274;SDS011;2151;50.988;11.068;2023-04-06T02:07:24;138.00;;;12.03;;
4274;SDS011;2151;50.988;11.068;2023-04-06T02:09:53;136.50;;;11.20;;
4274;SDS011;2151;50.988;11.068;2023-04-06T02:12:20;138.37;;;10.83;;
4274;SDS011;2151;50.988;11.068;2023-04-06T02:14:47;136.17;;;11.10;;
4274;SDS011;2151;50.988;11.068;2023-04-06T02:17:14;137.10;;;10.40;;
4274;SDS011;2151;50.988;11.068;2023-04-06T02:19:41;134.17;;;10.37;;
4274;SDS011;2151;50.988;11.068;2023-04-06T02:22:07;138.77;;;10.60;;
4274;SDS011;2151;50.988;11.068;2023-04-06T02:24:35;136.03;;;10.80;;
4274;SDS011;2151;50.988;11.068;2023-04-06T02:27:01;136.80;;;11.50;;
4274;SDS011;2151;50.988;11.068;2023-04-06T02:29:28;135.50;;;10.80;;
4274;SDS011;2151;50.988;11.068;2023-04-06T02:31:54;136.27;;;10.80;;
4274;SDS011;2151;50.988;11.068;2023-04-06T02:34:21;135.13;;;10.50;;
4274;SDS011;2151;50.988;11.068;2023-04-06T02:36:48;135.53;;;10.40;;
4274;SDS011;2151;50.988;11.068;2023-04-06T02:39:14;137.60;;;10.40;;
4274;SDS011;2151;50.988;11.068;2023-04-06T02:41:43;134.37;;;10.00;;
4274;SDS011;2151;50.988;11.068;2023-04-06T02:44:09;135.47;;;10.90;;
4274;SDS011;2151;50.988;11.068;2023-04-06T02:46:36;134.43;;;10.67;;
4274;SDS011;2151;50.988;11.068;2023-04-06T02:49:02;136.90;;;10.80;;
4274;SDS011;2151;50.988;11.068;2023-04-06T02:51:29;135.90;;;10.70;;
4274;SDS011;2151;50.988;11.068;2023-04-06T02:53:55;140.97;;;10.13;;
4274;SDS011;2151;50.988;11.068;2023-04-06T02:56:22;135.10;;;10.70;;
4274;SDS011;2151;50.988;11.068;2023-04-06T02:58:48;138.40;;;9.80;;
4274;SDS011;2151;50.988;11.068;2023-04-06T03:01:15;135.57;;;10.23;;
4274;SDS011;2151;50.988;11.068;2023-04-06T03:03:42;136.47;;;10.77;;
4274;SDS011;2151;50.988;11.068;2023-04-06T03:06:09;134.60;;;10.93;;
4274;SDS011;2151;50.988;11.068;2023-04-06T03:08:35;144.23;;;10.53;;
4274;SDS011;2151;50.988;11.068;2023-04-06T03:11:02;136.60;;;10.57;;
4274;SDS011;2151;50.988;11.068;2023-04-06T03:13:28;140.73;;;11.00;;
4274;SDS011;2151;50.988;11.068;2023-04-06T03:15:55;136.87;;;10.40;;
4274;SDS011;2151;50.988;11.068;2023-04-06T03:18:22;137.17;;;10.90;;
4274;SDS011;2151;50.988;11.068;2023-04-06T03:20:50;134.80;;;10.20;;
4274;SDS011;2151;50.988;11.068;2023-04-06T03:23:16;137.60;;;10.70;;
4274;SDS011;2151;50.988;11.068;2023-04-06T03:25:43;137.60;;;10.67;;
4274;SDS011;2151;50.988;11.068;2023-04-06T03:28:10;137.23;;;10.57;;
4274;SDS011;2151;50.988;11.068;2023-04-06T03:30:36;137.17;;;10.87;;
4274;SDS011;2151;50.988;11.068;2023-04-06T03:33:03;136.37;;;10.87;;
4274;SDS011;2151;50.988;11.068;2023-04-06T03:35:30;137.27;;;10.87;;
4274;SDS011;2151;50.988;11.068;2023-04-06T03:37:56;133.57;;;9.57;;
4274;SDS011;2151;50.988;11.068;2023-04-06T03:40:23;136.97;;;11.13;;
4274;SDS011;2151;50.988;11.068;2023-04-06T03:42:50;134.30;;;10.40;;
4274;SDS011;2151;50.988;11.068;2023-04-06T03:45:17;144.83;;;10.47;;
4274;SDS011;2151;50.988;11.068;2023-04-06T03:47:43;137.47;;;10.50;;
4274;SDS011;2151;50.988;11.068;2023-04-06T03:50:10;135.13;;;9.63;;
4274;SDS011;2151;50.988;11.068;2023-04-06T03:52:36;136.00;;;10.30;;
4274;SDS011;2151;50.988;11.068;2023-04-06T03:55:03;136.93;;;10.20;;
4274;SDS011;2151;50.988;11.068;2023-04-06T03:57:30;134.87;;;9.87;;
4274;SDS011;2151;50.988;11.068;2023-04-06T03:59:57;137.27;;;10.50;;
4274;SDS011;2151;50.988;11.068;2023-04-06T04:02:23;135.50;;;10.63;;
4274;SDS011;2151;50.988;11.068;2023-04-06T04:04:50;138.97;;;11.37;;
4274;SDS011;2151;50.988;11.068;2023-04-06T04:07:17;135.93;;;10.13;;
4274;SDS011;2151;50.988;11.068;2023-04-06T04:09:43;136.00;;;10.33;;
4274;SDS011;2151;50.988;11.068;2023-04-06T04:12:10;137.53;;;10.73;;
4274;SDS011;2151;50.988;11.068;2023-04-06T04:14:36;135.17;;;10.00;;
4274;SDS011;2151;50.988;11.068;2023-04-06T04:17:03;135.83;;;9.83;;
4274;SDS011;2151;50.988;11.068;2023-04-06T04:19:29;136.00;;;10.07;;
4274;SDS011;2151;50.988;11.068;2023-04-06T04:21:56;139.63;;;9.90;;
4274;SDS011;2151;50.988;11.068;2023-04-06T04:24:22;138.67;;;10.20;;
4274;SDS011;2151;50.988;11.068;2023-04-06T04:26:49;135.33;;;10.60;;
4274;SDS011;2151;50.988;11.068;2023-04-06T04:29:15;137.07;;;10.73;;
4274;SDS011;2151;50.988;11.068;2023-04-06T04:31:42;136.77;;;10.47;;
4274;SDS011;2151;50.988;11.068;2023-04-06T04:34:09;135.63;;;9.80;;
4274;SDS011;2151;50.988;11.068;2023-04-06T04:36:36;135.40;;;10.13;;
4274;SDS011;2151;50.988;11.068;2023-04-06T04:39:02;137.37;;;10.03;;
4274;SDS011;2151;50.988;11.068;2023-04-06T04:41:29;141.50;;;11.10;;
4274;SDS011;2151;50.988;11.068;2023-04-06T04:43:56;135.97;;;10.10;;
4274;SDS011;2151;50.988;11.068;2023-04-06T04:46:23;140.03;;;10.60;;
4274;SDS011;2151;50.988;11.068;2023-04-06T04:48:49;135.93;;;10.30;;
4274;SDS011;2151;50.988;11.068;2023-04-06T04:51:16;138.97;;;10.40;;
4274;SDS011;2151;50.988;11.068;2023-04-06T04:53:42;136.97;;;10.67;;
4274;SDS011;2151;50.988;11.068;2023-04-06T04:56:09;137.17;;;11.00;;
4274;SDS011;2151;50.988;11.068;2023-04-06T04:58:35;137.97;;;10.40;;
4274;SDS011;2151;50.988;11.068;2023-04-06T05:01:02;135.10;;;10.20;;
4274;SDS011;2151;50.988;11.068;2023-04-06T05:03:29;138.53;;;11.40;;
4274;SDS011;2151;50.988;11.068;2023-04-06T05:05:55;136.67;;;10.80;;
4274;SDS011;2151;50.988;11.068;2023-04-06T05:08:22;138.60;;;10.97;;
4274;SDS011;2151;50.988;11.068;2023-04-06T05:10:49;139.30;;;10.80;;
4274;SDS011;2151;50.988;11.068;2023-04-06T05:13:15;141.57;;;11.40;;
4274;SDS011;2151;50.988;11.068;2023-04-06T05:15:42;136.37;;;11.07;;
4274;SDS011;2151;50.988;11.068;2023-04-06T05:18:09;138.77;;;11.00;;
4274;SDS011;2151;50.988;11.068;2023-04-06T05:20:36;137.53;;;10.83;;
4274;SDS011;2151;50.988;11.068;2023-04-06T05:23:03;137.07;;;10.07;;
4274;SDS011;2151;50.988;11.068;2023-04-06T05:25:30;136.30;;;10.67;;
4274;SDS011;2151;50.988;11.068;2023-04-06T05:27:58;140.40;;;11.00;;
4274;SDS011;2151;50.988;11.068;2023-04-06T05:30:24;139.17;;;11.13;;
4274;SDS011;2151;50.988;11.068;2023-04-06T05:32:51;136.90;;;10.70;;
4274;SDS011;2151;50.988;11.068;2023-04-06T05:35:18;136.67;;;10.90;;
4274;SDS011;2151;50.988;11.068;2023-04-06T05:37:45;140.77;;;10.40;;
4274;SDS011;2151;50.988;11.068;2023-04-06T05:40:12;138.83;;;11.13;;
4274;SDS011;2151;50.988;11.068;2023-04-06T05:42:39;138.30;;;10.70;;
4274;SDS011;2151;50.988;11.068;2023-04-06T05:45:07;140.07;;;11.20;;
4274;SDS011;2151;50.988;11.068;2023-04-06T05:47:35;139.10;;;11.50;;
4274;SDS011;2151;50.988;11.068;2023-04-06T05:50:01;141.70;;;12.47;;
4274;SDS011;2151;50.988;11.068;2023-04-06T05:52:28;142.37;;;11.63;;
4274;SDS011;2151;50.988;11.068;2023-04-06T05:54:54;142.87;;;13.80;;
4274;SDS011;2151;50.988;11.068;2023-04-06T05:57:21;147.43;;;13.27;;
4274;SDS011;2151;50.988;11.068;2023-04-06T05:59:48;138.97;;;12.80;;
4274;SDS011;2151;50.988;11.068;2023-04-06T06:02:14;141.60;;;12.67;;
4274;SDS011;2151;50.988;11.068;2023-04-06T06:04:41;141.93;;;12.33;;
4274;SDS011;2151;50.988;11.068;2023-04-06T06:07:08;140.70;;;13.00;;
4274;SDS011;2151;50.988;11.068;2023-04-06T06:09:34;149.17;;;12.83;;
4274;SDS011;2151;50.988;11.068;2023-04-06T06:12:01;139.77;;;12.63;;
4274;SDS011;2151;50.988;11.068;2023-04-06T06:14:27;142.07;;;12.70;;
4274;SDS011;2151;50.988;11.068;2023-04-06T06:16:57;140.40;;;12.40;;
4274;SDS011;2151;50.988;11.068;2023-04-06T06:19:24;141.13;;;13.10;;
4274;SDS011;2151;50.988;11.068;2023-04-06T06:21:50;138.17;;;11.93;;
4274;SDS011;2151;50.988;11.068;2023-04-06T06:24:17;134.97;;;11.50;;
4274;SDS011;2151;50.988;11.068;2023-04-06T06:26:43;136.67;;;11.77;;
4274;SDS011;2151;50.988;11.068;2023-04-06T06:29:10;138.03;;;11.80;;
4274;SDS011;2151;50.988;11.068;2023-04-06T06:31:37;138.10;;;11.23;;
4274;SDS011;2151;50.988;11.068;2023-04-06T06:34:03;140.20;;;12.60;;
4274;SDS011;2151;50.988;11.068;2023-04-06T06:36:30;139.07;;;12.47;;
4274;SDS011;2151;50.988;11.068;2023-04-06T06:38:57;134.77;;;11.00;;
4274;SDS011;2151;50.988;11.068;2023-04-06T06:41:25;137.80;;;12.47;;
4274;SDS011;2151;50.988;11.068;2023-04-06T06:43:52;163.90;;;12.47;;
4274;SDS011;2151;50.988;11.068;2023-04-06T06:46:19;142.10;;;11.90;;
4274;SDS011;2151;50.988;11.068;2023-04-06T06:48:46;139.87;;;12.17;;
4274;SDS011;2151;50.988;11.068;2023-04-06T06:51:13;141.80;;;12.20;;
4274;SDS011;2151;50.988;11.068;2023-04-06T06:53:39;137.57;;;12.30;;
4274;SDS011;2151;50.988;11.068;2023-04-06T06:56:06;141.60;;;12.87;;
4274;SDS011;2151;50.988;11.068;2023-04-06T06:58:33;136.53;;;12.37;;
4274;SDS011;2151;50.988;11.068;2023-04-06T07:00:59;137.57;;;12.80;;
4274;SDS011;2151;50.988;11.068;2023-04-06T07:03:26;144.43;;;12.30;;
4274;SDS011;2151;50.988;11.068;2023-04-06T07:05:53;137.87;;;12.20;;
4274;SDS011;2151;50.988;11.068;2023-04-06T07:08:20;138.63;;;11.80;;
4274;SDS011;2151;50.988;11.068;2023-04-06T07:10:48;138.30;;;12.57;;
4274;SDS011;2151;50.988;11.068;2023-04-06T07:13:16;137.17;;;11.27;;
4274;SDS011;2151;50.988;11.068;2023-04-06T07:15:48;135.20;;;11.50;;
4274;SDS011;2151;50.988;11.068;2023-04-06T07:18:18;133.37;;;10.40;;
4274;SDS011;2151;50.988;11.068;2023-04-06T07:20:45;138.57;;;12.10;;
4274;SDS011;2151;50.988;11.068;2023-04-06T07:23:11;134.17;;;11.07;;
4274;SDS011;2151;50.988;11.068;2023-04-06T07:25:38;135.47;;;10.30;;
4274;SDS011;2151;50.988;11.068;2023-04-06T07:28:05;132.00;;;10.50;;
4274;SDS011;2151;50.988;11.068;2023-04-06T07:30:31;131.87;;;9.90;;
4274;SDS011;2151;50.988;11.068;2023-04-06T07:33:01;133.27;;;11.20;;
4274;SDS011;2151;50.988;11.068;2023-04-06T07:35:28;131.30;;;10.10;;
4274;SDS011;2151;50.988;11.068;2023-04-06T07:37:56;132.03;;;10.10;;
4274;SDS011;2151;50.988;11.068;2023-04-06T07:40:23;130.47;;;9.80;;
4274;SDS011;2151;50.988;11.068;2023-04-06T07:42:51;130.43;;;10.90;;
4274;SDS011;2151;50.988;11.068;2023-04-06T07:45:18;131.03;;;10.30;;
4274;SDS011;2151;50.988;11.068;2023-04-06T07:47:45;130.90;;;10.40;;
4274;SDS011;2151;50.988;11.068;2023-04-06T07:50:12;130.63;;;10.10;;
4274;SDS011;2151;50.988;11.068;2023-04-06T07:52:38;131.70;;;10.63;;
4274;SDS011;2151;50.988;11.068;2023-04-06T07:55:06;131.90;;;9.97;;
4274;SDS011;2151;50.988;11.068;2023-04-06T07:57:32;129.63;;;10.50;;
4274;SDS011;2151;50.988;11.068;2023-04-06T07:59:59;129.37;;;9.93;;
4274;SDS011;2151;50.988;11.068;2023-04-06T08:02:26;128.87;;;9.70;;
4274;SDS011;2151;50.988;11.068;2023-04-06T08:04:53;127.37;;;9.20;;
4274;SDS011;2151;50.988;11.068;2023-04-06T08:07:20;127.90;;;10.30;;
4274;SDS011;2151;50.988;11.068;2023-04-06T08:09:46;129.47;;;10.07;;
4274;SDS011;2151;50.988;11.068;2023-04-06T08:12:13;127.57;;;9.77;;
4274;SDS011;2151;50.988;11.068;2023-04-06T08:14:40;128.30;;;9.27;;
4274;SDS011;2151;50.988;11.068;2023-04-06T08:17:07;127.93;;;9.43;;
4274;SDS011;2151;50.988;11.068;2023-04-06T08:19:33;129.50;;;9.70;;
4274;SDS011;2151;50.988;11.068;2023-04-06T08:22:00;127.57;;;9.93;;
4274;SDS011;2151;50.988;11.068;2023-04-06T08:24:27;128.10;;;10.17;;
4274;SDS011;2151;50.988;11.068;2023-04-06T08:26:54;135.60;;;10.03;;
4274;SDS011;2151;50.988;11.068;2023-04-06T08:29:20;129.47;;;9.30;;
4274;SDS011;2151;50.988;11.068;2023-04-06T08:31:47;129.27;;;9.53;;
4274;SDS011;2151;50.988;11.068;2023-04-06T08:34:14;128.07;;;9.37;;
4274;SDS011;2151;50.988;11.068;2023-04-06T08:36:41;127.20;;;8.70;;
4274;SDS011;2151;50.988;11.068;2023-04-06T08:39:08;129.40;;;10.30;;
4274;SDS011;2151;50.988;11.068;2023-04-06T08:41:34;126.77;;;9.13;;
4274;SDS011;2151;50.988;11.068;2023-04-06T08:44:02;126.63;;;9.10;;
4274;SDS011;2151;50.988;11.068;2023-04-06T08:46:29;126.27;;;9.23;;
4274;SDS011;2151;50.988;11.068;2023-04-06T08:49:00;128.53;;;9.47;;
4274;SDS011;2151;50.988;11.068;2023-04-06T08:51:28;129.57;;;9.37;;
4274;SDS011;2151;50.988;11.068;2023-04-06T08:53:57;124.77;;;9.33;;
4274;SDS011;2151;50.988;11.068;2023-04-06T08:56:25;129.87;;;9.60;;
4274;SDS011;2151;50.988;11.068;2023-04-06T08:58:53;128.13;;;9.70;;
4274;SDS011;2151;50.988;11.068;2023-04-06T09:01:22;126.97;;;8.70;;
4274;SDS011;2151;50.988;11.068;2023-04-06T09:03:55;126.57;;;9.00;;
4274;SDS011;2151;50.988;11.068;2023-04-06T09:06:24;128.87;;;9.40;;
4274;SDS011;2151;50.988;11.068;2023-04-06T09:08:52;124.97;;;8.63;;
4274;SDS011;2151;50.988;11.068;2023-04-06T09:11:19;126.73;;;8.40;;
4274;SDS011;2151;50.988;11.068;2023-04-06T09:13:50;123.97;;;8.30;;
4274;SDS011;2151;50.988;11.068;2023-04-06T09:16:18;125.03;;;8.97;;
4274;SDS011;2151;50.988;11.068;2023-04-06T09:18:45;123.30;;;8.90;;
4274;SDS011;2151;50.988;11.068;2023-04-06T09:21:12;123.27;;;8.23;;
4274;SDS011;2151;50.988;11.068;2023-04-06T09:23:39;124.53;;;8.50;;
4274;SDS011;2151;50.988;11.068;2023-04-06T09:26:15;127.67;;;8.80;;
4274;SDS011;2151;50.988;11.068;2023-04-06T09:28:44;123.03;;;9.10;;
4274;SDS011;2151;50.988;11.068;2023-04-06T09:31:12;121.40;;;8.30;;
4274;SDS011;2151;50.988;11.068;2023-04-06T09:33:44;128.43;;;8.90;;
4274;SDS011;2151;50.988;11.068;2023-04-06T09:36:11;123.47;;;8.60;;
4274;SDS011;2151;50.988;11.068;2023-04-06T09:38:38;124.67;;;8.37;;
4274;SDS011;2151;50.988;11.068;2023-04-06T09:41:20;126.37;;;8.43;;
4274;SDS011;2151;50.988;11.068;2023-04-06T09:43:51;122.17;;;7.90;;
4274;SDS011;2151;50.988;11.068;2023-04-06T09:46:19;126.80;;;8.70;;
4274;SDS011;2151;50.988;11.068;2023-04-06T09:48:48;122.70;;;8.50;;
4274;SDS011;2151;50.988;11.068;2023-04-06T09:51:16;122.20;;;8.30;;
4274;SDS011;2151;50.988;11.068;2023-04-06T09:53:44;121.87;;;8.73;;
4274;SDS011;2151;50.988;11.068;2023-04-06T09:56:12;123.07;;;8.53;;
4274;SDS011;2151;50.988;11.068;2023-04-06T09:58:44;124.30;;;8.60;;
4274;SDS011;2151;50.988;11.068;2023-04-06T10:01:14;122.13;;;8.40;;
4274;SDS011;2151;50.988;11.068;2023-04-06T10:06:14;124.30;;;10.03;;
4274;SDS011;2151;50.988;11.068;2023-04-06T10:08:43;122.47;;;9.10;;
4274;SDS011;2151;50.988;11.068;2023-04-06T10:11:12;123.07;;;8.70;;
4274;SDS011;2151;50.988;11.068;2023-04-06T10:13:38;124.03;;;9.43;;
4274;SDS011;2151;50.988;11.068;2023-04-06T10:16:05;123.10;;;8.60;;
4274;SDS011;2151;50.988;11.068;2023-04-06T10:18:32;122.17;;;8.27;;
4274;SDS011;2151;50.988;11.068;2023-04-06T10:21:09;124.87;;;8.80;;
4274;SDS011;2151;50.988;11.068;2023-04-06T10:26:21;129.27;;;8.40;;
4274;SDS011;2151;50.988;11.068;2023-04-06T10:28:49;121.37;;;9.00;;
4274;SDS011;2151;50.988;11.068;2023-04-06T10:31:23;122.77;;;7.90;;
4274;SDS011;2151;50.988;11.068;2023-04-06T10:33:57;123.07;;;9.10;;
4274;SDS011;2151;50.988;11.068;2023-04-06T10:36:26;121.27;;;8.30;;
4274;SDS011;2151;50.988;11.068;2023-04-06T10:38:58;123.47;;;9.67;;
4274;SDS011;2151;50.988;11.068;2023-04-06T10:44:23;119.87;;;7.70;;
4274;SDS011;2151;50.988;11.068;2023-04-06T10:46:57;121.00;;;8.63;;
4274;SDS011;2151;50.988;11.068;2023-04-06T10:49:27;125.00;;;8.00;;
4274;SDS011;2151;50.988;11.068;2023-04-06T10:51:54;120.07;;;8.10;;
4274;SDS011;2151;50.988;11.068;2023-04-06T10:54:21;121.77;;;8.90;;
4274;SDS011;2151;50.988;11.068;2023-04-06T10:56:49;121.97;;;8.43;;
4274;SDS011;2151;50.988;11.068;2023-04-06T10:59:19;122.90;;;9.30;;
4274;SDS011;2151;50.988;11.068;2023-04-06T11:01:47;120.37;;;8.50;;
4274;SDS011;2151;50.988;11.068;2023-04-06T11:04:17;123.90;;;8.47;;
4274;SDS011;2151;50.988;11.068;2023-04-06T11:06:47;119.47;;;8.07;;
4274;SDS011;2151;50.988;11.068;2023-04-06T11:09:25;121.67;;;8.80;;
4274;SDS011;2151;50.988;11.068;2023-04-06T11:11:55;120.60;;;8.10;;
4274;SDS011;2151;50.988;11.068;2023-04-06T11:14:23;119.57;;;8.50;;
4274;SDS011;2151;50.988;11.068;2023-04-06T11:16:49;121.93;;;9.53;;
4274;SDS011;2151;50.988;11.068;2023-04-06T11:19:16;120.93;;;9.57;;
4274;SDS011;2151;50.988;11.068;2023-04-06T11:21:44;123.67;;;9.30;;
4274;SDS011;2151;50.988;11.068;2023-04-06T11:24:21;123.43;;;10.23;;
4274;SDS011;2151;50.988;11.068;2023-04-06T11:26:49;123.07;;;9.40;;
4274;SDS011;2151;50.988;11.068;2023-04-06T11:29:18;124.60;;;11.53;;
4274;SDS011;2151;50.988;11.068;2023-04-06T11:31:46;121.67;;;9.87;;
4274;SDS011;2151;50.988;11.068;2023-04-06T11:34:23;122.57;;;9.43;;
4274;SDS011;2151;50.988;11.068;2023-04-06T11:36:54;121.77;;;9.10;;
4274;SDS011;2151;50.988;11.068;2023-04-06T11:39:32;121.80;;;10.50;;
4274;SDS011;2151;50.988;11.068;2023-04-06T11:42:20;122.67;;;10.23;;
4274;SDS011;2151;50.988;11.068;2023-04-06T11:44:49;127.80;;;11.50;;
4274;SDS011;2151;50.988;11.068;2023-04-06T11:47:17;123.63;;;13.53;;
4274;SDS011;2151;50.988;11.068;2023-04-06T11:49:43;126.60;;;15.37;;
4274;SDS011;2151;50.988;11.068;2023-04-06T11:54:51;126.83;;;15.97;;
4274;SDS011;2151;50.988;11.068;2023-04-06T11:57:19;126.37;;;16.80;;
4274;SDS011;2151;50.988;11.068;2023-04-06T11:59:46;132.30;;;18.67;;
4274;SDS011;2151;50.988;11.068;2023-04-06T12:02:13;129.17;;;17.40;;
4274;SDS011;2151;50.988;11.068;2023-04-06T12:04:40;128.47;;;15.53;;
4274;SDS011;2151;50.988;11.068;2023-04-06T12:07:07;129.20;;;14.67;;
4274;SDS011;2151;50.988;11.068;2023-04-06T12:09:33;130.27;;;14.47;;
4274;SDS011;2151;50.988;11.068;2023-04-06T12:12:00;128.50;;;14.47;;
4274;SDS011;2151;50.988;11.068;2023-04-06T12:14:28;132.00;;;13.97;;
4274;SDS011;2151;50.988;11.068;2023-04-06T12:16:57;131.57;;;14.00;;
4274;SDS011;2151;50.988;11.068;2023-04-06T12:19:23;127.60;;;13.20;;
4274;SDS011;2151;50.988;11.068;2023-04-06T12:21:52;129.37;;;13.43;;
4274;SDS011;2151;50.988;11.068;2023-04-06T12:24:19;128.27;;;13.20;;
4274;SDS011;2151;50.988;11.068;2023-04-06T12:26:46;128.10;;;13.30;;
4274;SDS011;2151;50.988;11.068;2023-04-06T12:29:13;129.57;;;14.00;;
4274;SDS011;2151;50.988;11.068;2023-04-06T12:31:40;129.87;;;14.33;;
4274;SDS011;2151;50.988;11.068;2023-04-06T12:34:09;128.77;;;15.30;;
4274;SDS011;2151;50.988;11.068;2023-04-06T12:36:36;129.93;;;15.70;;
4274;SDS011;2151;50.988;11.068;2023-04-06T12:39:03;126.67;;;15.50;;
4274;SDS011;2151;50.988;11.068;2023-04-06T12:41:30;132.33;;;16.47;;
4274;SDS011;2151;50.988;11.068;2023-04-06T12:43:57;131.37;;;15.40;;
4274;SDS011;2151;50.988;11.068;2023-04-06T12:46:25;128.13;;;13.37;;
4274;SDS011;2151;50.988;11.068;2023-04-06T12:48:52;127.97;;;13.30;;
4274;SDS011;2151;50.988;11.068;2023-04-06T12:51:22;130.00;;;14.20;;
4274;SDS011;2151;50.988;11.068;2023-04-06T12:53:49;128.27;;;14.23;;
4274;SDS011;2151;50.988;11.068;2023-04-06T12:56:17;133.60;;;15.00;;
4274;SDS011;2151;50.988;11.068;2023-04-06T12:58:44;129.13;;;14.87;;
4274;SDS011;2151;50.988;11.068;2023-04-06T13:01:11;131.20;;;14.33;;
4274;SDS011;2151;50.988;11.068;2023-04-06T13:03:42;132.27;;;15.63;;
4274;SDS011;2151;50.988;11.068;2023-04-06T13:06:09;130.30;;;14.60;;
4274;SDS011;2151;50.988;11.068;2023-04-06T13:08:36;128.97;;;14.80;;
4274;SDS011;2151;50.988;11.068;2023-04-06T13:11:04;129.50;;;16.37;;
4274;SDS011;2151;50.988;11.068;2023-04-06T13:13:31;129.67;;;16.00;;
4274;SDS011;2151;50.988;11.068;2023-04-06T13:16:02;130.00;;;14.80;;
4274;SDS011;2151;50.988;11.068;2023-04-06T13:18:30;131.40;;;16.13;;
4274;SDS011;2151;50.988;11.068;2023-04-06T13:20:57;132.00;;;15.90;;
4274;SDS011;2151;50.988;11.068;2023-04-06T13:23:25;130.63;;;15.60;;
4274;SDS011;2151;50.988;11.068;2023-04-06T13:28:29;130.60;;;15.80;;
4274;SDS011;2151;50.988;11.068;2023-04-06T13:30:57;130.17;;;15.97;;
4274;SDS011;2151;50.988;11.068;2023-04-06T13:33:25;131.60;;;17.30;;
4274;SDS011;2151;50.988;11.068;2023-04-06T13:35:52;131.90;;;17.63;;
4274;SDS011;2151;50.988;11.068;2023-04-06T13:38:19;127.97;;;16.57;;
4274;SDS011;2151;50.988;11.068;2023-04-06T13:40:46;130.60;;;20.10;;
4274;SDS011;2151;50.988;11.068;2023-04-06T13:43:12;125.47;;;15.30;;
4274;SDS011;2151;50.988;11.068;2023-04-06T13:45:39;124.10;;;12.60;;
4274;SDS011;2151;50.988;11.068;2023-04-06T13:48:06;121.63;;;10.27;;
4274;SDS011;2151;50.988;11.068;2023-04-06T13:50:33;122.37;;;9.53;;
4274;SDS011;2151;50.988;11.068;2023-04-06T13:53:00;123.60;;;9.17;;
4274;SDS011;2151;50.988;11.068;2023-04-06T13:55:26;121.87;;;9.50;;
4274;SDS011;2151;50.988;11.068;2023-04-06T13:57:53;121.83;;;9.40;;
4274;SDS011;2151;50.988;11.068;2023-04-06T14:00:21;122.67;;;9.90;;
4274;SDS011;2151;50.988;11.068;2023-04-06T14:02:47;123.30;;;9.00;;
4274;SDS011;2151;50.988;11.068;2023-04-06T14:05:14;120.40;;;8.43;;
4274;SDS011;2151;50.988;11.068;2023-04-06T14:07:41;129.60;;;9.50;;
4274;SDS011;2151;50.988;11.068;2023-04-06T14:10:07;123.70;;;9.53;;
4274;SDS011;2151;50.988;11.068;2023-04-06T14:12:43;120.60;;;7.70;;
4274;SDS011;2151;50.988;11.068;2023-04-06T14:15:11;120.70;;;8.47;;
4274;SDS011;2151;50.988;11.068;2023-04-06T14:17:38;124.70;;;9.33;;
4274;SDS011;2151;50.988;11.068;2023-04-06T14:20:05;122.30;;;8.67;;
4274;SDS011;2151;50.988;11.068;2023-04-06T14:22:33;123.90;;;9.07;;
4274;SDS011;2151;50.988;11.068;2023-04-06T14:25:01;120.00;;;8.00;;
4274;SDS011;2151;50.988;11.068;2023-04-06T14:27:29;122.67;;;8.57;;
4274;SDS011;2151;50.988;11.068;2023-04-06T14:29:58;120.70;;;8.23;;
4274;SDS011;2151;50.988;11.068;2023-04-06T14:32:28;124.57;;;9.33;;
4274;SDS011;2151;50.988;11.068;2023-04-06T14:34:54;122.23;;;8.80;;
4274;SDS011;2151;50.988;11.068;2023-04-06T14:37:21;122.13;;;8.57;;
4274;SDS011;2151;50.988;11.068;2023-04-06T14:39:48;122.13;;;8.90;;